createdAt,value
2017-05-18T00:00:42.457Z,69.62
2017-05-18T00:01:27.866Z,69.62
2017-05-18T00:02:27.891Z,70
2017-05-18T00:03:27.610Z,70.29
2017-05-18T00:04:27.942Z,70.86
2017-05-18T00:05:27.966Z,70.29
2017-05-18T00:06:27.992Z,70.38
2017-05-18T00:07:27.711Z,70.29
2017-05-18T00:08:28.041Z,70.29
2017-05-18T00:09:28.070Z,70.09
2017-05-18T00:10:28.090Z,70.76
2017-05-18T00:11:28.115Z,71.25
2017-05-18T00:12:28.141Z,70.76
2017-05-18T00:13:28.168Z,71.05
2017-05-18T00:14:28.192Z,71.34
2017-05-18T00:15:28.217Z,71.44
2017-05-18T00:16:42.859Z,71.34
2017-05-18T00:17:27.963Z,71.25
2017-05-18T00:18:28.292Z,71.34
2017-05-18T00:19:28.318Z,71.44
2017-05-18T00:20:28.343Z,71.25
2017-05-18T00:21:28.367Z,71.34
2017-05-18T00:22:28.392Z,71.53
2017-05-18T00:23:28.418Z,71.92
2017-05-18T00:24:28.445Z,72.01
2017-05-18T00:25:28.467Z,72.2
2017-05-18T00:26:28.190Z,71.88
2017-05-18T00:27:28.518Z,72.2
2017-05-18T00:28:28.544Z,72.07
2017-05-18T00:29:28.572Z,72.07
2017-05-18T00:30:28.596Z,72.11
2017-05-18T00:31:28.619Z,72.11
2017-05-18T00:32:43.261Z,72.45
2017-05-18T00:33:28.671Z,73.13
2017-05-18T00:34:28.695Z,72.84
2017-05-18T00:35:28.415Z,72.84
2017-05-18T00:36:28.743Z,72.74
2017-05-18T00:37:28.467Z,72.94
2017-05-18T00:38:28.800Z,72.64
2017-05-18T00:39:28.818Z,72.94
2017-05-18T00:40:28.845Z,73.41
2017-05-18T00:41:28.564Z,73.32
2017-05-18T00:42:28.894Z,73.32
2017-05-18T00:43:28.918Z,73.8
2017-05-18T00:44:28.944Z,73.32
2017-05-18T00:46:28.995Z,73.51
2017-05-18T00:47:29.021Z,73.51
2017-05-18T00:48:43.663Z,73.66
2017-05-18T00:49:29.068Z,74.57
2017-05-18T00:50:29.094Z,73.95
2017-05-18T00:51:29.118Z,74.47
2017-05-18T00:52:29.142Z,74.47
2017-05-18T00:53:29.168Z,74.57
2017-05-18T00:54:29.192Z,74.15
2017-05-18T00:55:29.217Z,73.76
2017-05-18T00:56:29.244Z,74.08
2017-05-18T00:57:29.267Z,73.9
2017-05-18T00:58:29.293Z,74.08
2017-05-18T00:59:29.316Z,74.05
2017-05-18T01:01:29.367Z,74.33
2017-05-18T01:02:29.393Z,74.72
2017-05-18T01:03:44.035Z,74.52
2017-05-18T01:04:29.444Z,74.72
2017-05-18T01:05:29.465Z,74.82
2017-05-18T01:06:29.495Z,74.91
2017-05-18T01:07:29.521Z,75.1
2017-05-18T01:08:29.543Z,75.1
2017-05-18T01:09:29.616Z,75.2
2017-05-18T01:10:29.596Z,75.01
2017-05-18T01:11:29.616Z,75.96
2017-05-18T01:12:29.642Z,75.39
2017-05-18T01:13:29.674Z,75.39
2017-05-18T01:14:29.387Z,75.2
2017-05-18T01:15:29.718Z,75.39
2017-05-18T01:16:29.741Z,75.29
2017-05-18T01:17:29.766Z,75.96
2017-05-18T01:18:29.792Z,76.44
2017-05-18T01:19:29.825Z,75.96
2017-05-18T01:20:29.840Z,75.96
2017-05-18T01:21:29.863Z,75.39
2017-05-18T01:22:29.891Z,76.64
2017-05-18T01:23:29.915Z,75.96
2017-05-18T01:24:29.938Z,76.15
2017-05-18T01:25:29.963Z,76.25
2017-05-18T01:26:29.988Z,76.31
2017-05-18T01:27:30.012Z,76.15
2017-05-18T01:28:30.042Z,76.44
2017-05-18T01:29:30.063Z,76.69
2017-05-18T01:30:30.087Z,76.79
2017-05-18T01:31:30.113Z,76.4
2017-05-18T01:32:30.137Z,76.69
2017-05-18T01:33:30.163Z,76.6
2017-05-18T01:34:30.190Z,76.4
2017-05-18T01:35:44.883Z,76.5
2017-05-18T01:36:30.239Z,76.6
2017-05-18T01:37:30.263Z,76.79
2017-05-18T01:38:30.283Z,76.89
2017-05-18T01:39:30.314Z,77.46
2017-05-18T01:40:30.333Z,77.26
2017-05-18T01:41:30.359Z,77.65
2017-05-18T01:42:30.385Z,77.46
2017-05-18T01:43:30.408Z,77.94
2017-05-18T01:44:30.441Z,77.84
2017-05-18T01:45:30.456Z,78.42
2017-05-18T01:46:30.481Z,78.32
2017-05-18T01:47:30.205Z,78.03
2017-05-18T01:48:30.532Z,78.22
2017-05-18T01:49:30.554Z,78.13
2017-05-18T01:50:30.580Z,78.13
2017-05-18T01:51:45.224Z,78.22
2017-05-18T01:52:30.327Z,78.22
2017-05-18T01:53:30.657Z,78.28
2017-05-18T01:54:30.678Z,78.22
2017-05-18T01:55:30.704Z,78.51
2017-05-18T01:56:30.728Z,78.22
2017-05-18T01:57:30.753Z,78.13
2017-05-18T01:58:30.776Z,78.76
2017-05-18T01:59:30.803Z,78.76
2017-05-18T02:00:30.824Z,79.62
2017-05-18T02:01:30.849Z,79.62
2017-05-18T02:02:30.877Z,79.81
2017-05-18T02:04:30.923Z,79.81
2017-05-18T02:05:30.948Z,79.81
2017-05-18T02:06:30.974Z,80.38
2017-05-18T02:07:45.614Z,80.38
2017-05-18T02:08:31.021Z,80
2017-05-18T02:09:31.048Z,80.29
2017-05-18T02:10:30.767Z,80.58
2017-05-18T02:11:31.095Z,80.87
2017-05-18T02:12:31.118Z,81.15
2017-05-18T02:13:31.149Z,81.15
2017-05-18T02:14:31.168Z,80.87
2017-05-18T02:15:31.194Z,81.25
2017-05-18T02:17:31.247Z,81.34
2017-05-18T02:18:31.267Z,81.21
2017-05-18T02:19:31.297Z,81.3
2017-05-18T02:20:31.317Z,81.49
2017-05-18T02:21:31.347Z,81.49
2017-05-18T02:22:31.364Z,81.4
2017-05-18T02:23:46.006Z,81.3
2017-05-18T02:24:31.413Z,81.97
2017-05-18T02:25:31.438Z,81.88
2017-05-18T02:26:31.462Z,81.21
2017-05-18T02:27:31.487Z,81.49
2017-05-18T02:28:31.511Z,81.49
2017-05-18T02:29:31.541Z,81.54
2017-05-18T02:30:31.559Z,81.49
2017-05-18T02:31:31.586Z,81.68
2017-05-18T02:32:31.609Z,82.07
2017-05-18T02:33:31.632Z,81.78
2017-05-18T02:34:31.655Z,82.17
2017-05-18T02:36:31.708Z,82.45
2017-05-18T02:37:31.733Z,82.35
2017-05-18T02:38:46.373Z,82.83
2017-05-18T02:39:31.779Z,82.74
2017-05-18T02:40:31.805Z,82.93
2017-05-18T02:41:31.828Z,82.83
2017-05-18T02:42:31.853Z,82.74
2017-05-18T02:43:31.877Z,83.03
2017-05-18T02:44:31.902Z,83.22
2017-05-18T02:45:31.926Z,83.12
2017-05-18T02:46:31.949Z,83.22
2017-05-18T02:47:31.972Z,83.08
2017-05-18T02:48:32.007Z,83.31
2017-05-18T02:49:32.022Z,83.98
2017-05-18T02:52:32.094Z,83.65
2017-05-18T02:53:32.119Z,83.5
2017-05-18T02:54:32.143Z,83.4
2017-05-18T02:55:32.168Z,83.6
2017-05-18T02:56:32.191Z,83.69
2017-05-18T02:57:32.216Z,83.5
2017-05-18T02:58:32.239Z,83.46
2017-05-18T02:59:32.265Z,83.79
2017-05-18T03:00:32.289Z,83.84
2017-05-18T03:01:32.313Z,84.03
2017-05-18T03:02:32.336Z,84.13
2017-05-18T03:03:32.360Z,84.61
2017-05-18T03:04:32.386Z,84.13
2017-05-18T03:05:32.414Z,84.13
2017-05-18T03:06:32.434Z,83.94
2017-05-18T03:07:32.460Z,84.32
2017-05-18T03:08:32.482Z,84.13
2017-05-18T03:09:32.506Z,84.13
2017-05-18T03:10:47.153Z,84.52
2017-05-18T03:11:32.554Z,84.52
2017-05-18T03:12:32.579Z,84.13
2017-05-18T03:13:32.604Z,84.32
2017-05-18T03:14:32.629Z,84.13
2017-05-18T03:15:32.650Z,84.23
2017-05-18T03:16:32.675Z,84.32
2017-05-18T03:17:32.702Z,84.42
2017-05-18T03:18:32.724Z,84.52
2017-05-18T03:19:32.748Z,85.18
2017-05-18T03:20:32.769Z,84.7
2017-05-18T03:21:32.793Z,84.7
2017-05-18T03:22:32.821Z,85.18
2017-05-18T03:24:32.868Z,85.09
2017-05-18T03:25:32.890Z,84.7
2017-05-18T03:26:47.532Z,84.8
2017-05-18T03:27:32.942Z,84.89
2017-05-18T03:28:32.660Z,85.47
2017-05-18T03:29:32.989Z,85.18
2017-05-18T03:30:33.011Z,84.89
2017-05-18T03:31:33.035Z,84.7
2017-05-18T03:32:33.059Z,85.28
2017-05-18T03:33:33.082Z,85.18
2017-05-18T03:34:33.109Z,84.99
2017-05-18T03:35:33.131Z,85.66
2017-05-18T03:36:33.155Z,85.47
2017-05-18T03:37:33.180Z,85.57
2017-05-18T03:39:33.227Z,85.18
2017-05-18T03:40:33.255Z,85.47
2017-05-18T03:41:33.276Z,85.09
2017-05-18T03:42:47.916Z,84.8
2017-05-18T03:43:33.323Z,84.99
2017-05-18T03:44:33.347Z,85.47
2017-05-18T03:45:33.371Z,85.47
2017-05-18T03:46:33.396Z,85.09
2017-05-18T03:47:33.425Z,85.18
2017-05-18T03:48:33.443Z,84.84
2017-05-18T03:49:33.467Z,85.32
2017-05-18T03:50:33.498Z,84.7
2017-05-18T03:51:33.516Z,85.03
2017-05-18T03:52:33.540Z,84.84
2017-05-18T03:53:33.563Z,84.75
2017-05-18T03:55:33.613Z,85.13
2017-05-18T03:56:33.638Z,84.75
2017-05-18T03:57:33.662Z,84.27
2017-05-18T03:58:48.302Z,84.17
2017-05-18T03:59:33.710Z,84.36
2017-05-18T04:00:33.732Z,84.27
2017-05-18T04:01:33.761Z,84.17
2017-05-18T04:02:33.783Z,83.69
2017-05-18T04:03:33.812Z,83.79
2017-05-18T04:04:33.836Z,83.89
2017-05-18T04:05:33.853Z,84.02
2017-05-18T04:06:33.879Z,83.73
2017-05-18T04:07:33.902Z,83.93
2017-05-18T04:08:33.926Z,83.36
2017-05-18T04:09:33.950Z,83.45
2017-05-18T04:11:34.001Z,83.54
2017-05-18T04:12:34.027Z,83.16
2017-05-18T04:13:48.665Z,83.06
2017-05-18T04:14:34.074Z,82.78
2017-05-18T04:15:34.099Z,83.06
2017-05-18T04:16:34.120Z,82.24
2017-05-18T04:17:34.145Z,82.3
2017-05-18T04:18:34.170Z,82.15
2017-05-18T04:19:34.196Z,81.96
2017-05-18T04:20:34.218Z,82.15
2017-05-18T04:21:34.243Z,81.86
2017-05-18T04:22:34.272Z,81.77
2017-05-18T04:23:34.297Z,82.15
2017-05-18T04:24:34.318Z,82.24
2017-05-18T04:25:34.340Z,82.34
2017-05-18T04:26:34.365Z,81.86
2017-05-18T04:27:34.391Z,82.43
2017-05-18T04:28:34.422Z,81.96
2017-05-18T04:29:34.438Z,81.96
2017-05-18T04:30:34.461Z,82.15
2017-05-18T04:31:34.490Z,81.96
2017-05-18T04:32:34.511Z,82.15
2017-05-18T04:33:34.537Z,82.06
2017-05-18T04:34:34.561Z,82.06
2017-05-18T04:35:34.589Z,81.77
2017-05-18T04:36:34.608Z,81.38
2017-05-18T04:37:34.632Z,81.77
2017-05-18T04:38:34.661Z,81.77
2017-05-18T04:39:34.681Z,81.52
2017-05-18T04:41:34.729Z,81.13
2017-05-18T04:42:34.758Z,79.6
2017-05-18T04:43:34.782Z,77.19
2017-05-18T04:44:34.810Z,74.73
2017-05-18T04:45:49.446Z,70.72
2017-05-18T04:46:34.853Z,68.96
2017-05-18T04:47:34.893Z,66.2
2017-05-18T04:48:34.907Z,64.59
2017-05-18T04:49:34.930Z,61.77
2017-05-18T04:50:34.962Z,60.58
2017-05-18T04:51:34.986Z,58.77
2017-05-18T04:52:35.014Z,57.54
2017-05-18T04:53:35.042Z,55.35
2017-05-18T04:54:35.074Z,54.51
2017-05-18T04:55:35.094Z,53.19
2017-05-18T04:56:35.122Z,52.05
2017-05-18T04:57:35.151Z,50.55
2017-05-18T04:58:35.182Z,50.29
2017-05-18T04:59:35.211Z,48.83
2017-05-18T05:00:35.241Z,48.47
2017-05-18T05:01:49.889Z,48.47
2017-05-18T05:02:35.305Z,48.66
2017-05-18T05:03:35.335Z,47.89
2017-05-18T05:04:35.365Z,46.45
2017-05-18T05:05:35.396Z,46.48
2017-05-18T05:06:35.425Z,46.28
2017-05-18T05:07:35.457Z,45.04
2017-05-18T05:08:35.489Z,43.71
2017-05-18T05:09:35.522Z,43.44
2017-05-18T05:10:35.552Z,44.19
2017-05-18T05:11:35.587Z,43.82
2017-05-18T05:12:35.620Z,42.66
2017-05-18T05:13:35.653Z,42.31
2017-05-18T05:15:35.718Z,39.36
2017-05-18T05:16:35.754Z,40.03
2017-05-18T05:17:50.404Z,38.48
2017-05-18T05:18:35.818Z,37.54
2017-05-18T05:19:35.853Z,37.43
2017-05-18T05:20:35.889Z,37.55
2017-05-18T05:21:35.922Z,36.98
2017-05-18T05:22:36.011Z,37.65
2017-05-18T05:23:35.992Z,36.76
2017-05-18T05:24:36.032Z,36.88
2017-05-18T05:25:36.061Z,36.11
2017-05-18T05:26:36.101Z,37.07
2017-05-18T05:27:36.134Z,36.11
2017-05-18T05:28:36.166Z,36.6
2017-05-18T05:29:36.202Z,36.29
2017-05-18T05:30:36.240Z,36.02
2017-05-18T05:31:36.275Z,36.23
2017-05-18T05:32:36.308Z,35.45
2017-05-18T05:33:50.965Z,34.31
2017-05-18T05:34:36.385Z,34.01
2017-05-18T05:35:36.416Z,34.41
2017-05-18T05:36:36.458Z,33.84
2017-05-18T05:37:36.490Z,33.07
2017-05-18T05:38:36.526Z,32.01
2017-05-18T05:39:36.561Z,31.83
2017-05-18T05:40:36.599Z,32.2
2017-05-18T05:41:36.636Z,32.9
2017-05-18T05:42:36.673Z,31.83
2017-05-18T05:43:36.709Z,31.35
2017-05-18T05:45:36.781Z,30.96
2017-05-18T05:46:36.820Z,30.77
2017-05-18T05:47:36.858Z,31.04
2017-05-18T05:48:51.514Z,30.46
2017-05-18T05:49:36.930Z,30.47
2017-05-18T05:50:36.969Z,30.29
2017-05-18T05:51:37.006Z,30.55
2017-05-18T05:52:37.045Z,30.72
2017-05-18T05:53:37.081Z,30.74
2017-05-18T05:54:37.121Z,31.41
2017-05-18T05:55:37.157Z,30.82
2017-05-18T05:56:37.193Z,31.29
2017-05-18T05:57:37.235Z,31.9
2017-05-18T05:58:37.269Z,30.54
2017-05-18T05:59:37.307Z,29.97
2017-05-18T06:00:37.344Z,29.59
2017-05-18T06:02:37.422Z,30.36
2017-05-18T06:03:37.459Z,30.16
2017-05-18T06:04:37.498Z,30.75
2017-05-18T06:05:37.533Z,29.6
2017-05-18T06:06:37.571Z,29.41
2017-05-18T06:07:37.612Z,29.59
2017-05-18T06:08:37.666Z,30.16
2017-05-18T06:09:37.686Z,29.98
2017-05-18T06:10:37.725Z,29.11
2017-05-18T06:11:37.460Z,28.05
2017-05-18T06:12:37.806Z,28.93
2017-05-18T06:13:38.139Z,28.53
2017-05-18T06:14:37.876Z,29.02
2017-05-18T06:15:37.914Z,29.11
2017-05-18T06:16:37.951Z,29.9
2017-05-18T06:17:37.991Z,29.11
2017-05-18T06:18:38.029Z,28.43
2017-05-18T06:19:38.066Z,28.43
2017-05-18T06:20:52.726Z,28.85
2017-05-18T06:21:38.145Z,27.8
2017-05-18T06:22:38.184Z,27.99
2017-05-18T06:23:38.222Z,28.37
2017-05-18T06:24:38.259Z,26.98
2017-05-18T06:25:38.299Z,28.34
2017-05-18T06:26:38.338Z,27.85
2017-05-18T06:27:38.377Z,29.21
2017-05-18T06:28:38.421Z,28.13
2017-05-18T06:30:38.494Z,28.89
2017-05-18T06:31:38.538Z,28.99
2017-05-18T06:32:38.572Z,29.46
2017-05-18T06:33:38.611Z,30.04
2017-05-18T06:34:38.647Z,30.05
2017-05-18T06:35:38.686Z,28.58
2017-05-18T06:36:53.346Z,28.71
2017-05-18T06:37:38.766Z,29.28
2017-05-18T06:38:38.498Z,28.59
2017-05-18T06:39:38.537Z,28.69
2017-05-18T06:40:38.577Z,28.31
2017-05-18T06:41:38.925Z,28.51
2017-05-18T06:42:38.659Z,27.44
2017-05-18T06:43:38.995Z,27.55
2017-05-18T06:44:39.035Z,26.38
2017-05-18T06:45:38.777Z,26.59
2017-05-18T06:46:39.113Z,28.64
2017-05-18T06:47:39.151Z,27.07
2017-05-18T06:48:39.192Z,25.12
2017-05-18T06:49:39.229Z,25.61
2017-05-18T06:50:39.273Z,27.24
2017-05-18T06:51:39.307Z,27.81
2017-05-18T06:52:53.966Z,27.9
2017-05-18T06:53:39.385Z,27.88
2017-05-18T06:54:39.422Z,27.88
2017-05-18T06:55:39.462Z,28.01
2017-05-18T06:56:39.502Z,27.91
2017-05-18T06:57:39.550Z,27.14
2017-05-18T06:58:39.580Z,27.63
2017-05-18T06:59:39.620Z,27.72
2017-05-18T07:00:39.658Z,27.33
2017-05-18T07:01:39.694Z,27.81
2017-05-18T07:02:39.735Z,28.47
2017-05-18T07:04:39.813Z,28.96
2017-05-18T07:05:39.850Z,28
2017-05-18T07:06:39.888Z,27.62
2017-05-18T07:07:39.927Z,26.75
2017-05-18T07:08:54.586Z,25.88
2017-05-18T07:09:40.005Z,25.42
2017-05-18T07:10:40.045Z,24.84
2017-05-18T07:11:40.082Z,24.84
2017-05-18T07:12:40.121Z,24.43
2017-05-18T07:13:40.159Z,24.91
2017-05-18T07:14:40.198Z,24.52
2017-05-18T07:15:40.237Z,24.25
2017-05-18T07:16:40.275Z,24.65
2017-05-18T07:18:40.353Z,24.07
2017-05-18T07:21:40.471Z,24.55
2017-05-18T07:22:40.510Z,24.73
2017-05-18T07:23:55.169Z,24.35
2017-05-18T07:24:40.592Z,24.55
2017-05-18T07:25:40.626Z,23.78
2017-05-18T07:26:40.665Z,23.49
2017-05-18T07:27:40.708Z,23.95
2017-05-18T07:28:40.746Z,23.95
2017-05-18T07:29:40.783Z,23.74
2017-05-18T07:30:40.822Z,23.18
2017-05-18T07:31:40.862Z,22.7
2017-05-18T07:32:40.899Z,22.8
2017-05-18T07:33:40.939Z,22.59
2017-05-18T07:36:41.061Z,23.55
2017-05-18T07:37:41.094Z,23.85
2017-05-18T07:38:41.135Z,23.75
2017-05-18T07:39:41.175Z,23.29
2017-05-18T07:40:41.211Z,22.69
2017-05-18T07:41:41.253Z,23.57
2017-05-18T07:42:41.291Z,23.83
2017-05-18T07:43:41.330Z,23.74
2017-05-18T07:44:41.367Z,24.24
2017-05-18T07:45:41.407Z,24.64
2017-05-18T07:46:41.446Z,23.39
2017-05-18T07:47:41.485Z,24.07
2017-05-18T07:48:41.523Z,23.49
2017-05-18T07:49:41.561Z,22.61
2017-05-18T07:50:41.601Z,23.89
2017-05-18T07:52:41.681Z,24.93
2017-05-18T07:53:41.719Z,24.14
2017-05-18T07:54:41.755Z,23.85
2017-05-18T07:55:56.417Z,24.26
2017-05-18T07:56:41.832Z,22.99
2017-05-18T07:57:41.873Z,23.49
2017-05-18T07:58:41.914Z,23.75
2017-05-18T07:59:41.948Z,23.75
2017-05-18T08:00:41.988Z,23.83
2017-05-18T08:01:42.027Z,24.03
2017-05-18T08:02:42.066Z,23.84
2017-05-18T08:03:42.104Z,23.75
2017-05-18T08:04:42.146Z,23.36
2017-05-18T08:05:42.180Z,23.36
2017-05-18T08:06:41.919Z,23.95
2017-05-18T08:07:41.953Z,22.97
2017-05-18T08:08:42.356Z,23.18
2017-05-18T08:10:42.372Z,23.45
2017-05-18T08:11:57.030Z,23.65
2017-05-18T08:12:42.447Z,24.53
2017-05-18T08:13:42.489Z,24.04
2017-05-18T08:14:42.523Z,24.36
2017-05-18T08:15:42.564Z,23.29
2017-05-18T08:16:42.603Z,23.47
2017-05-18T08:17:42.647Z,23.86
2017-05-18T08:18:42.679Z,23.97
2017-05-18T08:19:42.715Z,24.35
2017-05-18T08:20:42.752Z,24.33
2017-05-18T08:21:42.791Z,24.32
2017-05-18T08:22:42.829Z,25.01
2017-05-18T08:23:42.566Z,24.15
2017-05-18T08:24:42.906Z,25.52
2017-05-18T08:25:42.943Z,24.06
2017-05-18T08:26:42.983Z,24.85
2017-05-18T08:27:57.639Z,25.01
2017-05-18T08:28:43.056Z,24.33
2017-05-18T08:29:43.094Z,24.52
2017-05-18T08:30:43.131Z,25.42
2017-05-18T08:31:43.170Z,25.12
2017-05-18T08:32:43.208Z,25.12
2017-05-18T08:33:43.300Z,25.22
2017-05-18T08:34:43.285Z,24.53
2017-05-18T08:35:43.319Z,23.95
2017-05-18T08:36:43.357Z,23.27
2017-05-18T08:38:43.432Z,23.36
2017-05-18T08:40:43.508Z,23.95
2017-05-18T08:41:43.547Z,23.84
2017-05-18T08:42:43.585Z,23.45
2017-05-18T08:43:58.240Z,23.16
2017-05-18T08:44:43.656Z,23.94
2017-05-18T08:45:43.697Z,23.56
2017-05-18T08:46:43.731Z,23.18
2017-05-18T08:47:43.771Z,23.36
2017-05-18T08:48:43.806Z,22.49
2017-05-18T08:49:43.842Z,22.31
2017-05-18T08:50:43.879Z,23.39
2017-05-18T08:51:43.923Z,22.61
2017-05-18T08:52:43.956Z,22.03
2017-05-18T08:53:43.991Z,22.52
2017-05-18T08:54:44.028Z,22.6
2017-05-18T08:56:44.105Z,22.8
2017-05-18T08:57:44.141Z,22.41
2017-05-18T08:58:58.798Z,22.61
2017-05-18T08:59:44.217Z,23.3
2017-05-18T09:00:44.252Z,24.29
2017-05-18T09:01:44.289Z,24.1
2017-05-18T09:02:44.328Z,22.24
2017-05-18T09:03:44.364Z,22.13
2017-05-18T09:04:44.400Z,21.44
2017-05-18T09:05:44.437Z,22.33
2017-05-18T09:06:44.478Z,22.02
2017-05-18T09:09:44.592Z,22.42
2017-05-18T09:10:44.624Z,23.02
2017-05-18T09:11:44.660Z,22.22
2017-05-18T09:12:44.698Z,23.9
2017-05-18T09:13:44.736Z,22.82
2017-05-18T09:14:44.778Z,21.56
2017-05-18T09:15:44.796Z,21.26
2017-05-18T09:16:44.833Z,22.31
2017-05-18T09:17:44.872Z,22.52
2017-05-18T09:18:44.908Z,21.94
2017-05-18T09:19:44.940Z,21.45
2017-05-18T09:20:44.983Z,22.63
2017-05-18T09:21:45.032Z,21.26
2017-05-18T09:22:45.077Z,21.15
2017-05-18T09:23:45.109Z,22.23
2017-05-18T09:24:45.157Z,22.61
2017-05-18T09:25:45.243Z,22.7
2017-05-18T09:26:45.230Z,23.38
2017-05-18T09:27:45.260Z,22.5
2017-05-18T09:28:45.292Z,22.81
2017-05-18T09:29:45.345Z,22.31
2017-05-18T09:30:59.980Z,23.47
2017-05-18T09:31:45.408Z,23.77
2017-05-18T09:32:45.448Z,23.47
2017-05-18T09:33:45.483Z,23.36
2017-05-18T09:36:45.592Z,23.84
2017-05-18T09:37:45.616Z,24.63
2017-05-18T09:38:45.656Z,23.46
2017-05-18T09:39:45.696Z,24.04
2017-05-18T09:40:45.728Z,25.11
2017-05-18T09:41:45.765Z,24.13
2017-05-18T09:42:45.809Z,24.22
2017-05-18T09:44:45.879Z,25.46
2017-05-18T09:45:45.910Z,25.37
2017-05-18T09:47:00.558Z,25.28
2017-05-18T09:47:45.981Z,25.37
2017-05-18T09:48:46.018Z,25.09
2017-05-18T09:49:46.059Z,24.02
2017-05-18T09:50:46.082Z,24.24
2017-05-18T09:51:46.129Z,23.46
2017-05-18T09:52:46.166Z,23.18
2017-05-18T09:53:46.214Z,23.4
2017-05-18T09:54:46.229Z,22.41
2017-05-18T09:55:46.267Z,22.31
2017-05-18T09:56:46.302Z,24.07
2017-05-18T09:58:46.378Z,22.52
2017-05-18T09:59:46.399Z,22.31
2017-05-18T10:01:46.479Z,22.99
2017-05-18T10:03:01.125Z,21.92
2017-05-18T10:05:46.631Z,22.52
2017-05-18T10:06:46.658Z,23.02
2017-05-18T10:07:46.687Z,22.63
2017-05-18T10:08:46.734Z,22.35
2017-05-18T10:09:46.769Z,21.36
2017-05-18T10:10:46.837Z,22.25
2017-05-18T10:11:46.834Z,22.75
2017-05-18T10:12:46.871Z,20.98
2017-05-18T10:13:46.920Z,21.36
2017-05-18T10:15:46.979Z,21.36
2017-05-18T10:16:47.020Z,21.75
2017-05-18T10:17:47.050Z,22.23
2017-05-18T10:19:01.697Z,21.84
2017-05-18T10:19:47.118Z,21.34
2017-05-18T10:20:47.162Z,21.84
2017-05-18T10:21:47.194Z,22.71
2017-05-18T10:22:47.237Z,22.6
2017-05-18T10:23:46.947Z,23.75
2017-05-18T10:24:47.299Z,24.04
2017-05-18T10:25:47.326Z,24.6
2017-05-18T10:26:47.373Z,24.7
2017-05-18T10:27:47.396Z,25.29
2017-05-18T10:28:47.451Z,24.69
2017-05-18T10:29:47.477Z,25.46
2017-05-18T10:30:47.522Z,26.54
2017-05-18T10:32:47.595Z,25.27
2017-05-18T10:34:02.227Z,26.04
2017-05-18T10:34:47.653Z,26.92
2017-05-18T10:35:47.694Z,26.43
2017-05-18T10:36:47.728Z,25.84
2017-05-18T10:37:47.750Z,27.39
2017-05-18T10:38:47.793Z,26.53
2017-05-18T10:39:47.823Z,27.4
2017-05-18T10:40:47.871Z,27.31
2017-05-18T10:41:47.888Z,26.71
2017-05-18T10:42:47.931Z,26.32
2017-05-18T10:43:47.966Z,28.75
2017-05-18T10:44:48.010Z,28.45
2017-05-18T10:45:48.036Z,28.36
2017-05-18T10:46:48.119Z,27.49
2017-05-18T10:48:48.143Z,27.19
2017-05-18T10:49:48.188Z,28.45
2017-05-18T10:50:48.215Z,27.28
2017-05-18T10:52:48.278Z,28.75
2017-05-18T10:53:48.310Z,27.69
2017-05-18T10:54:48.348Z,27.86
2017-05-18T10:55:48.077Z,28.64
2017-05-18T10:56:48.422Z,28.64
2017-05-18T10:57:48.454Z,28.34
2017-05-18T10:58:48.486Z,28.25
2017-05-18T10:59:48.519Z,28.34
2017-05-18T11:00:48.552Z,28.34
2017-05-18T11:01:48.283Z,28.25
2017-05-18T11:02:48.614Z,28.53
2017-05-18T11:03:48.654Z,29.3
2017-05-18T11:04:48.699Z,30.66
2017-05-18T11:06:03.333Z,29.11
2017-05-18T11:07:48.795Z,30.96
2017-05-18T11:11:48.915Z,29.31
2017-05-18T11:12:48.649Z,29.21
2017-05-18T11:13:49.001Z,30.18
2017-05-18T11:14:49.035Z,30.74
2017-05-18T11:15:49.057Z,30.45
2017-05-18T11:16:49.095Z,30.47
2017-05-18T11:18:49.163Z,30.35
2017-05-18T11:19:49.192Z,29.47
2017-05-18T11:20:49.237Z,28.91
2017-05-18T11:22:03.873Z,29.2
2017-05-18T11:22:49.286Z,29.2
2017-05-18T11:23:49.331Z,28.91
2017-05-18T11:24:49.352Z,29.1
2017-05-18T11:26:49.414Z,29.77
2017-05-18T11:27:49.463Z,29.57
2017-05-18T11:28:49.495Z,29.57
2017-05-18T11:29:49.531Z,28.42
2017-05-18T11:30:49.557Z,30.35
2017-05-18T11:31:49.599Z,29.59
2017-05-18T11:32:49.618Z,30.19
2017-05-18T11:33:49.650Z,29.7
2017-05-18T11:34:49.691Z,29.13
2017-05-18T11:35:49.419Z,29.61
2017-05-18T11:36:49.748Z,30.3
2017-05-18T11:38:04.399Z,29.34
2017-05-18T11:38:49.822Z,29.22
2017-05-18T11:42:49.957Z,31.35
2017-05-18T11:43:49.978Z,30.29
2017-05-18T11:44:50.028Z,29.8
2017-05-18T11:45:50.054Z,29.7
2017-05-18T11:46:49.775Z,29.11
2017-05-18T11:47:50.113Z,28.25
2017-05-18T11:48:50.148Z,29.21
2017-05-18T11:49:50.186Z,30.08
2017-05-18T11:50:50.214Z,29.88
2017-05-18T11:51:50.250Z,30.38
2017-05-18T11:52:50.277Z,28.64
2017-05-18T11:54:04.929Z,29.1
2017-05-18T11:55:50.373Z,29.02
2017-05-18T11:56:50.422Z,29.31
2017-05-18T11:57:50.137Z,28.82
2017-05-18T11:58:50.477Z,30.29
2017-05-18T11:59:50.512Z,28.14
2017-05-18T12:00:50.538Z,29.6
2017-05-18T12:01:50.582Z,28.82
2017-05-18T12:02:50.601Z,28.53
2017-05-18T12:03:50.645Z,28.82
2017-05-18T12:04:50.664Z,28.23
2017-05-18T12:06:50.741Z,27.17
2017-05-18T12:07:50.786Z,27.26
2017-05-18T12:09:05.418Z,26.67
2017-05-18T12:09:50.846Z,28.33
2017-05-18T12:10:50.879Z,27.65
2017-05-18T12:11:50.893Z,28.63
2017-05-18T12:12:50.931Z,28.05
2017-05-18T12:13:50.971Z,28.82
2017-05-18T12:14:50.995Z,28.43
2017-05-18T12:15:51.038Z,26.59
2017-05-18T12:16:51.068Z,26.48
2017-05-18T12:17:51.100Z,28.33
2017-05-18T12:18:51.143Z,28.43
2017-05-18T12:19:51.168Z,28.33
2017-05-18T12:20:51.201Z,28.64
2017-05-18T12:21:51.220Z,28.74
2017-05-18T12:22:51.266Z,27.86
2017-05-18T12:23:51.301Z,27.76
2017-05-18T12:24:51.335Z,28.33
2017-05-18T12:25:51.350Z,27.75
2017-05-18T12:26:51.399Z,27.84
2017-05-18T12:27:51.431Z,28.43
2017-05-18T12:28:51.470Z,28.43
2017-05-18T12:29:51.487Z,28.13
2017-05-18T12:30:51.522Z,28.71
2017-05-18T12:31:51.558Z,29.3
2017-05-18T12:32:51.598Z,28.72
2017-05-18T12:33:51.630Z,29.41
2017-05-18T12:35:51.690Z,28.33
2017-05-18T12:36:51.723Z,28.43
2017-05-18T12:37:51.756Z,29.2
2017-05-18T12:38:51.787Z,28.81
2017-05-18T12:39:51.819Z,27.55
2017-05-18T12:41:06.460Z,28.22
2017-05-18T12:41:51.876Z,28.23
2017-05-18T12:42:51.914Z,29.21
2017-05-18T12:43:51.945Z,28.43
2017-05-18T12:44:51.674Z,28.04
2017-05-18T12:45:52.009Z,28.32
2017-05-18T12:46:52.051Z,28.32
2017-05-18T12:47:52.077Z,29.39
2017-05-18T12:48:52.117Z,28.71
2017-05-18T12:49:52.135Z,28.13
2017-05-18T12:50:52.178Z,28.13
2017-05-18T12:51:52.196Z,28.61
2017-05-18T12:52:52.249Z,28.81
2017-05-18T12:53:52.272Z,30.08
2017-05-18T12:54:52.303Z,28.52
2017-05-18T12:55:52.330Z,29.69
2017-05-18T12:57:06.980Z,29.9
2017-05-18T12:57:52.401Z,28.83
2017-05-18T12:58:52.432Z,28.53
2017-05-18T13:00:52.490Z,28.82
2017-05-18T13:01:52.532Z,29.7
2017-05-18T13:02:52.563Z,28.63
2017-05-18T13:03:52.601Z,28.43
2017-05-18T13:04:52.629Z,28.43
2017-05-18T13:05:52.660Z,28.71
2017-05-18T13:06:52.383Z,28.42
2017-05-18T13:07:52.726Z,30.45
2017-05-18T13:08:52.761Z,28.71
2017-05-18T13:09:52.793Z,29.88
2017-05-18T13:10:52.823Z,28.71
2017-05-18T13:11:52.854Z,29.21
2017-05-18T13:13:07.496Z,28.63
2017-05-18T13:13:52.909Z,29.02
2017-05-18T13:15:52.972Z,27.75
2017-05-18T13:16:53.020Z,28.33
2017-05-18T13:17:53.051Z,27.75
2017-05-18T13:18:53.072Z,28.22
2017-05-18T13:19:52.804Z,28.53
2017-05-18T13:20:53.147Z,28.61
2017-05-18T13:21:53.177Z,29.08
2017-05-18T13:22:53.210Z,29.2
2017-05-18T13:23:53.231Z,29
2017-05-18T13:24:53.274Z,29.2
2017-05-18T13:25:53.293Z,29.38
2017-05-18T13:26:53.338Z,30.26
2017-05-18T13:27:53.373Z,28.2
2017-05-18T13:29:08.008Z,28.61
2017-05-18T13:29:53.431Z,28.32
2017-05-18T13:31:53.504Z,29.39
2017-05-18T13:32:53.526Z,29.11
2017-05-18T13:33:53.566Z,29.1
2017-05-18T13:34:53.590Z,28.91
2017-05-18T13:35:53.637Z,29.11
2017-05-18T13:36:53.658Z,29.6
2017-05-18T13:37:53.690Z,29.02
2017-05-18T13:38:53.724Z,28.52
2017-05-18T13:40:53.486Z,29.69
2017-05-18T13:41:53.832Z,29.2
2017-05-18T13:42:53.542Z,29.59
2017-05-18T13:44:08.492Z,29
2017-05-18T13:44:53.917Z,28.61
2017-05-18T13:45:53.959Z,28.22
2017-05-18T13:46:53.666Z,28.91
2017-05-18T13:47:54.021Z,28.81
2017-05-18T13:48:54.039Z,28.71
2017-05-18T13:49:54.122Z,27.64
2017-05-18T13:50:54.113Z,29.08
2017-05-18T13:51:54.147Z,28.22